Warning: Javascript must be enabled to use all the features on this page!


Page Loading - Please Wait...

* We've detected you're using a mobile device. Find our Next Generation Station Page here.
Click to hideNews Bulletins

Peak Streamflow for the Nation

USGS 11523000 KLAMATH R A ORLEANS

Humboldt County, California
Hydrologic Unit Code 18010209
Latitude  41°18'13", Longitude 123°32'00" NAD27
Drainage area 8,475  square miles
Gage datum 355.98 feet above NGVD29
Output formats
Table
Graph
Tab-separated file
peakfq (watstore) format
Reselect output format
Water
Year
Date Gage
Height
(feet)
Stream-
flow
(cfs)
1927 1927-02-21 50.80 141,0006
1928 1928-03-26 27.90 60,3006
1929 1928-12-29 10.57 13,7006
1931 1931-03-18 12.10 17,6006
1932 1932-03-19 24.80 51,6006
1933 1933-06-09 13.01 19,9006
1934 1934-03-28 13.75 21,3006
1935 1935-04-16 12.48 18,0006
1936 1936-01-15 27.80 60,0006
1937 1937-04-14 27.60 59,5006
1938 1937-12-11 32.30 73,7006
1939 1938-12-03 15.77 26,5006
1940 1940-02-28 31.10 70,3006
1941 1940-12-21 19.48 36,5006
1942 1941-12-02 27.00 58,0006
1943 1943-01-21 30.45 68,4006
1944 1944-03-10 11.25 13,5006
1945 1945-03-13 23.70 48,4006
1946 1945-12-28 40.00 97,0006
1947 1946-11-19 15.82 26,7006
1948 1948-01-07 38.40 92,2006
1949 1949-02-22 17.10 30,2006
1950 1950-03-17 21.40 41,9006
1951 1950-10-29 32.45 74,4006
1952 1952-02-02 30.20 67,6006
1953 1953-01-18 49.70 137,0006
1954 1953-11-23 26.16 57,5006
1955 1954-12-31 15.45 26,9006
1956 1955-12-22 59.40 202,0006
1957 1957-02-26 33.00 79,2006
1958 1958-01-29 38.10 96,8006
1959 1959-01-12 31.28 73,7006
1960 1960-02-08 30.35 70,7006
1961 1961-02-11 26.20 57,6006
1962 1961-12-19 19.62 38,3006
1963 1962-12-02 34.80 85,3006
1964 1964-01-20 26.30 59,9006
1965 1964-12-22 76.50 307,0006
1966 1966-01-06 23.656 96,2006
1967 1967-01-29 24.07 98,6006
1968 1968-02-23 25.38 109,0006
1969 1969-01-21   77,8006
1970 1970-01-24   175,0006
1971 1971-01-17 30.96 190,0006
1972 1972-03-03 32.82 191,0006
1973 1972-12-22 14.89 38,4006
1974 1974-01-16 37.24 279,0006
1975 1975-03-18 20.04 74,8006
1976 1975-11-15 14.24 35,1006
1977 1977-09-29 5.12 7,8006
1978 1977-12-14 23.30 111,0006
1979 1979-01-11 16.61 48,2006
1980 1980-01-12 24.15 121,0006
1981 1980-12-02 14.67 40,3006
1982 1981-12-20 30.07 201,0006
1983 1982-12-17 29.88 198,0006
1984 1983-12-15 20.05 76,8006
1985 1984-11-12 18.57 64,4006
1986 1986-02-18 37.16 278,0006
1987 1987-03-12 13.19 32,6006
1988 1987-12-10 17.84 58,8006
1989 1988-11-22 18.86 66,8006
1990 1990-01-08 17.54 56,7006
1991 1991-03-04 11.40 25,4006
1992 1992-04-17 10.51 22,2006
1993 1993-03-17 20.68 65,3006
1994 1993-12-08 11.59 19,6006
1995 1995-01-31 25.85 112,0006
1996 1996-02-09 18.92 56,7006
1997 1997-01-01 37.79 258,0006
1998 1998-03-23 26.41 113,0006
1999 1999-02-28 24.61 61,0006
2000 2000-01-14 17.41 46,8006
2001 2001-03-25 8.93 11,0006
2002 2002-01-08 15.73 37,8006
2003 2002-12-27   56,0002,6
2004 2004-02-18 20.13 63,5006
2005 2004-12-09 17.60 47,9006
2006 2005-12-30 34.80 213,0006
2007 2006-12-26 18.91 57,2006
2008 2007-10-19 13.85 30,3006
2009 2008-12-29 14.79 34,8006
2010 2010-06-04 16.30 42,6006
2011 2011-03-16 15.67 39,2006
2012 2012-03-30 21.58 74,5006
2013 2012-12-02 21.93 77,0006
2014 2014-03-10 17.18 47,3006
2015 2015-02-07 23.08 85,3006
2016 2016-01-17 23.23 80,7006
2017 2017-02-09 29.29 130,0006
2018 2018-04-07 16.49 42,2006
2019 2019-04-08 21.40 69,5006
2020 2020-01-26 16.64 42,9006
2021 2021-01-13 17.33 45,3006
?
  Peak Gage-Height Qualification Codes.
?
  Peak Streamflow Qualification Codes.